sensor_id;sensor_type;location;lat;lon;timestamp;P1;durP1;ratioP1;P2;durP2;ratioP2
32918;SDS011;19280;42.646;21.150;2022-08-21T00:00:25;40.28;;;24.52;;
32918;SDS011;19280;42.646;21.150;2022-08-21T00:02:55;36.53;;;24.20;;
32918;SDS011;19280;42.646;21.150;2022-08-21T00:05:22;56.88;;;39.42;;
32918;SDS011;19280;42.646;21.150;2022-08-21T00:07:49;44.60;;;27.55;;
32918;SDS011;19280;42.646;21.150;2022-08-21T00:10:17;41.60;;;22.30;;
32918;SDS011;19280;42.646;21.150;2022-08-21T00:12:44;34.30;;;21.60;;
32918;SDS011;19280;42.646;21.150;2022-08-21T00:15:11;42.15;;;21.58;;
32918;SDS011;19280;42.646;21.150;2022-08-21T00:17:38;35.45;;;22.60;;
32918;SDS011;19280;42.646;21.150;2022-08-21T00:20:06;46.42;;;24.10;;
32918;SDS011;19280;42.646;21.150;2022-08-21T00:22:34;37.45;;;23.42;;
32918;SDS011;19280;42.646;21.150;2022-08-21T00:25:03;44.20;;;24.75;;
32918;SDS011;19280;42.646;21.150;2022-08-21T00:27:30;46.13;;;26.58;;
32918;SDS011;19280;42.646;21.150;2022-08-21T00:29:57;56.95;;;36.05;;
32918;SDS011;19280;42.646;21.150;2022-08-21T00:32:25;46.13;;;27.08;;
32918;SDS011;19280;42.646;21.150;2022-08-21T00:34:52;42.70;;;23.75;;
32918;SDS011;19280;42.646;21.150;2022-08-21T00:37:20;44.63;;;25.35;;
32918;SDS011;19280;42.646;21.150;2022-08-21T00:39:47;53.80;;;25.80;;
32918;SDS011;19280;42.646;21.150;2022-08-21T00:42:14;46.67;;;24.77;;
32918;SDS011;19280;42.646;21.150;2022-08-21T00:44:42;47.47;;;23.58;;
32918;SDS011;19280;42.646;21.150;2022-08-21T00:47:09;40.75;;;22.58;;
32918;SDS011;19280;42.646;21.150;2022-08-21T00:49:37;31.75;;;19.42;;
32918;SDS011;19280;42.646;21.150;2022-08-21T00:52:05;36.83;;;19.38;;
32918;SDS011;19280;42.646;21.150;2022-08-21T00:54:33;34.75;;;16.95;;
32918;SDS011;19280;42.646;21.150;2022-08-21T00:57:02;36.42;;;16.15;;
32918;SDS011;19280;42.646;21.150;2022-08-21T00:59:31;26.65;;;15.15;;
32918;SDS011;19280;42.646;21.150;2022-08-21T01:01:59;33.08;;;14.55;;
32918;SDS011;19280;42.646;21.150;2022-08-21T01:04:26;34.70;;;14.10;;
32918;SDS011;19280;42.646;21.150;2022-08-21T01:06:53;28.45;;;13.07;;
32918;SDS011;19280;42.646;21.150;2022-08-21T01:09:20;22.70;;;13.60;;
32918;SDS011;19280;42.646;21.150;2022-08-21T01:11:47;22.83;;;12.20;;
32918;SDS011;19280;42.646;21.150;2022-08-21T01:14:14;24.08;;;11.48;;
32918;SDS011;19280;42.646;21.150;2022-08-21T01:16:45;21.83;;;11.73;;
32918;SDS011;19280;42.646;21.150;2022-08-21T01:19:13;26.40;;;12.13;;
32918;SDS011;19280;42.646;21.150;2022-08-21T01:21:40;23.58;;;12.20;;
32918;SDS011;19280;42.646;21.150;2022-08-21T01:24:07;22.33;;;12.38;;
32918;SDS011;19280;42.646;21.150;2022-08-21T01:26:34;32.15;;;12.75;;
32918;SDS011;19280;42.646;21.150;2022-08-21T01:29:03;23.13;;;12.77;;
32918;SDS011;19280;42.646;21.150;2022-08-21T01:31:32;35.40;;;14.85;;
32918;SDS011;19280;42.646;21.150;2022-08-21T01:33:59;38.92;;;17.83;;
32918;SDS011;19280;42.646;21.150;2022-08-21T01:36:26;27.83;;;16.30;;
32918;SDS011;19280;42.646;21.150;2022-08-21T01:38:52;33.45;;;17.30;;
32918;SDS011;19280;42.646;21.150;2022-08-21T01:41:19;35.80;;;19.50;;
32918;SDS011;19280;42.646;21.150;2022-08-21T01:43:46;36.38;;;18.80;;
32918;SDS011;19280;42.646;21.150;2022-08-21T01:46:13;40.80;;;20.40;;
32918;SDS011;19280;42.646;21.150;2022-08-21T01:48:40;44.10;;;19.90;;
32918;SDS011;19280;42.646;21.150;2022-08-21T01:51:08;33.70;;;19.48;;
32918;SDS011;19280;42.646;21.150;2022-08-21T01:53:35;34.20;;;19.50;;
32918;SDS011;19280;42.646;21.150;2022-08-21T01:56:03;39.65;;;20.08;;
32918;SDS011;19280;42.646;21.150;2022-08-21T01:58:30;39.85;;;20.15;;
32918;SDS011;19280;42.646;21.150;2022-08-21T02:00:57;44.03;;;21.40;;
32918;SDS011;19280;42.646;21.150;2022-08-21T02:03:23;47.00;;;21.95;;
32918;SDS011;19280;42.646;21.150;2022-08-21T02:05:51;43.67;;;20.73;;
32918;SDS011;19280;42.646;21.150;2022-08-21T02:08:18;46.35;;;21.92;;
32918;SDS011;19280;42.646;21.150;2022-08-21T02:10:48;53.22;;;21.90;;
32918;SDS011;19280;42.646;21.150;2022-08-21T02:13:15;41.53;;;20.15;;
32918;SDS011;19280;42.646;21.150;2022-08-21T02:15:42;46.72;;;21.35;;
32918;SDS011;19280;42.646;21.150;2022-08-21T02:18:09;42.40;;;21.05;;
32918;SDS011;19280;42.646;21.150;2022-08-21T02:20:37;39.25;;;20.55;;
32918;SDS011;19280;42.646;21.150;2022-08-21T02:23:05;41.13;;;20.63;;
32918;SDS011;19280;42.646;21.150;2022-08-21T02:25:33;45.00;;;21.35;;
32918;SDS011;19280;42.646;21.150;2022-08-21T02:28:02;47.15;;;20.30;;
32918;SDS011;19280;42.646;21.150;2022-08-21T02:30:31;45.70;;;18.80;;
32918;SDS011;19280;42.646;21.150;2022-08-21T02:32:59;42.85;;;19.80;;
32918;SDS011;19280;42.646;21.150;2022-08-21T02:35:26;34.63;;;20.15;;
32918;SDS011;19280;42.646;21.150;2022-08-21T02:37:58;33.22;;;19.85;;
32918;SDS011;19280;42.646;21.150;2022-08-21T02:40:26;48.75;;;21.90;;
32918;SDS011;19280;42.646;21.150;2022-08-21T02:42:53;46.97;;;21.70;;
32918;SDS011;19280;42.646;21.150;2022-08-21T02:45:20;38.35;;;20.52;;
32918;SDS011;19280;42.646;21.150;2022-08-21T02:47:49;35.00;;;20.15;;
32918;SDS011;19280;42.646;21.150;2022-08-21T02:50:18;39.85;;;20.92;;
32918;SDS011;19280;42.646;21.150;2022-08-21T02:52:46;41.50;;;20.52;;
32918;SDS011;19280;42.646;21.150;2022-08-21T02:55:13;38.10;;;21.63;;
32918;SDS011;19280;42.646;21.150;2022-08-21T02:57:39;42.53;;;21.25;;
32918;SDS011;19280;42.646;21.150;2022-08-21T03:00:06;38.03;;;20.58;;
32918;SDS011;19280;42.646;21.150;2022-08-21T03:02:35;39.50;;;19.33;;
32918;SDS011;19280;42.646;21.150;2022-08-21T03:05:02;28.73;;;16.98;;
32918;SDS011;19280;42.646;21.150;2022-08-21T03:07:29;29.35;;;16.63;;
32918;SDS011;19280;42.646;21.150;2022-08-21T03:09:56;32.03;;;16.10;;
32918;SDS011;19280;42.646;21.150;2022-08-21T03:12:23;27.25;;;15.68;;
32918;SDS011;19280;42.646;21.150;2022-08-21T03:14:50;34.28;;;16.80;;
32918;SDS011;19280;42.646;21.150;2022-08-21T03:17:17;30.00;;;16.05;;
32918;SDS011;19280;42.646;21.150;2022-08-21T03:19:44;31.52;;;16.17;;
32918;SDS011;19280;42.646;21.150;2022-08-21T03:22:11;24.90;;;13.82;;
32918;SDS011;19280;42.646;21.150;2022-08-21T03:24:38;41.10;;;14.68;;
32918;SDS011;19280;42.646;21.150;2022-08-21T03:27:05;34.17;;;14.98;;
32918;SDS011;19280;42.646;21.150;2022-08-21T03:29:31;34.90;;;14.40;;
32918;SDS011;19280;42.646;21.150;2022-08-21T03:31:58;31.65;;;15.10;;
32918;SDS011;19280;42.646;21.150;2022-08-21T03:34:26;27.38;;;15.52;;
32918;SDS011;19280;42.646;21.150;2022-08-21T03:36:53;26.48;;;15.48;;
32918;SDS011;19280;42.646;21.150;2022-08-21T03:39:20;33.45;;;16.65;;
32918;SDS011;19280;42.646;21.150;2022-08-21T03:41:47;31.50;;;17.42;;
32918;SDS011;19280;42.646;21.150;2022-08-21T03:44:13;37.47;;;17.35;;
32918;SDS011;19280;42.646;21.150;2022-08-21T03:46:40;29.63;;;18.15;;
32918;SDS011;19280;42.646;21.150;2022-08-21T03:49:07;33.75;;;18.55;;
32918;SDS011;19280;42.646;21.150;2022-08-21T03:51:34;35.78;;;17.25;;
32918;SDS011;19280;42.646;21.150;2022-08-21T03:54:01;32.15;;;17.60;;
32918;SDS011;19280;42.646;21.150;2022-08-21T03:56:28;37.13;;;19.70;;
32918;SDS011;19280;42.646;21.150;2022-08-21T03:58:54;34.70;;;19.73;;
32918;SDS011;19280;42.646;21.150;2022-08-21T04:01:22;30.88;;;19.60;;
32918;SDS011;19280;42.646;21.150;2022-08-21T04:03:49;37.38;;;20.63;;
32918;SDS011;19280;42.646;21.150;2022-08-21T04:06:16;30.15;;;19.70;;
32918;SDS011;19280;42.646;21.150;2022-08-21T04:08:43;37.42;;;21.90;;
32918;SDS011;19280;42.646;21.150;2022-08-21T04:11:11;32.80;;;21.75;;
32918;SDS011;19280;42.646;21.150;2022-08-21T04:13:38;49.35;;;23.63;;
32918;SDS011;19280;42.646;21.150;2022-08-21T04:16:06;43.03;;;22.50;;
32918;SDS011;19280;42.646;21.150;2022-08-21T04:18:33;45.25;;;23.55;;
32918;SDS011;19280;42.646;21.150;2022-08-21T04:21:01;42.33;;;21.77;;
32918;SDS011;19280;42.646;21.150;2022-08-21T04:23:28;40.92;;;21.98;;
32918;SDS011;19280;42.646;21.150;2022-08-21T04:25:55;32.65;;;19.35;;
32918;SDS011;19280;42.646;21.150;2022-08-21T04:28:23;34.38;;;20.48;;
32918;SDS011;19280;42.646;21.150;2022-08-21T04:30:51;34.97;;;20.02;;
32918;SDS011;19280;42.646;21.150;2022-08-21T04:33:18;50.20;;;23.70;;
32918;SDS011;19280;42.646;21.150;2022-08-21T04:35:46;53.42;;;29.30;;
32918;SDS011;19280;42.646;21.150;2022-08-21T04:38:14;55.17;;;30.67;;
32918;SDS011;19280;42.646;21.150;2022-08-21T04:40:41;78.35;;;36.40;;
32918;SDS011;19280;42.646;21.150;2022-08-21T04:43:08;77.10;;;37.45;;
32918;SDS011;19280;42.646;21.150;2022-08-21T04:45:40;66.07;;;35.85;;
32918;SDS011;19280;42.646;21.150;2022-08-21T04:48:07;86.00;;;39.08;;
32918;SDS011;19280;42.646;21.150;2022-08-21T04:50:39;77.32;;;37.67;;
32918;SDS011;19280;42.646;21.150;2022-08-21T04:53:09;86.97;;;40.90;;
32918;SDS011;19280;42.646;21.150;2022-08-21T04:55:38;105.72;;;42.55;;
32918;SDS011;19280;42.646;21.150;2022-08-21T04:58:06;93.20;;;41.25;;
32918;SDS011;19280;42.646;21.150;2022-08-21T05:00:34;105.47;;;44.83;;
32918;SDS011;19280;42.646;21.150;2022-08-21T05:03:00;101.20;;;43.65;;
32918;SDS011;19280;42.646;21.150;2022-08-21T05:05:29;108.60;;;44.40;;
32918;SDS011;19280;42.646;21.150;2022-08-21T05:07:56;108.07;;;45.15;;
32918;SDS011;19280;42.646;21.150;2022-08-21T05:10:24;110.97;;;45.67;;
32918;SDS011;19280;42.646;21.150;2022-08-21T05:12:51;106.32;;;47.55;;
32918;SDS011;19280;42.646;21.150;2022-08-21T05:15:18;121.60;;;47.45;;
32918;SDS011;19280;42.646;21.150;2022-08-21T05:17:45;99.20;;;44.47;;
32918;SDS011;19280;42.646;21.150;2022-08-21T05:20:12;102.90;;;43.08;;
32918;SDS011;19280;42.646;21.150;2022-08-21T05:22:40;91.03;;;38.63;;
32918;SDS011;19280;42.646;21.150;2022-08-21T05:25:07;88.80;;;38.65;;
32918;SDS011;19280;42.646;21.150;2022-08-21T05:27:34;90.10;;;40.58;;
32918;SDS011;19280;42.646;21.150;2022-08-21T05:30:01;89.40;;;41.17;;
32918;SDS011;19280;42.646;21.150;2022-08-21T05:32:29;93.13;;;40.78;;
32918;SDS011;19280;42.646;21.150;2022-08-21T05:34:55;90.53;;;40.88;;
32918;SDS011;19280;42.646;21.150;2022-08-21T05:37:22;93.85;;;41.05;;
32918;SDS011;19280;42.646;21.150;2022-08-21T05:39:49;85.45;;;40.95;;
32918;SDS011;19280;42.646;21.150;2022-08-21T05:42:16;88.57;;;40.95;;
32918;SDS011;19280;42.646;21.150;2022-08-21T05:44:43;96.38;;;40.92;;
32918;SDS011;19280;42.646;21.150;2022-08-21T05:47:10;98.68;;;44.53;;
32918;SDS011;19280;42.646;21.150;2022-08-21T05:49:37;79.82;;;40.45;;
32918;SDS011;19280;42.646;21.150;2022-08-21T05:52:04;88.93;;;41.17;;
32918;SDS011;19280;42.646;21.150;2022-08-21T05:54:32;84.50;;;41.53;;
32918;SDS011;19280;42.646;21.150;2022-08-21T05:56:58;89.50;;;41.67;;
32918;SDS011;19280;42.646;21.150;2022-08-21T05:59:25;82.65;;;40.38;;
32918;SDS011;19280;42.646;21.150;2022-08-21T06:01:53;76.55;;;38.00;;
32918;SDS011;19280;42.646;21.150;2022-08-21T06:04:20;80.70;;;39.17;;
32918;SDS011;19280;42.646;21.150;2022-08-21T06:06:47;69.68;;;36.38;;
32918;SDS011;19280;42.646;21.150;2022-08-21T06:09:14;71.15;;;36.17;;
32918;SDS011;19280;42.646;21.150;2022-08-21T06:11:40;68.75;;;34.13;;
32918;SDS011;19280;42.646;21.150;2022-08-21T06:14:07;67.35;;;32.58;;
32918;SDS011;19280;42.646;21.150;2022-08-21T06:16:34;66.50;;;30.88;;
32918;SDS011;19280;42.646;21.150;2022-08-21T06:19:01;55.47;;;27.85;;
32918;SDS011;19280;42.646;21.150;2022-08-21T06:21:28;51.92;;;26.85;;
32918;SDS011;19280;42.646;21.150;2022-08-21T06:23:55;45.03;;;22.75;;
32918;SDS011;19280;42.646;21.150;2022-08-21T06:26:21;48.60;;;23.95;;
32918;SDS011;19280;42.646;21.150;2022-08-21T06:28:49;38.28;;;21.73;;
32918;SDS011;19280;42.646;21.150;2022-08-21T06:31:18;41.58;;;21.08;;
32918;SDS011;19280;42.646;21.150;2022-08-21T06:33:45;34.47;;;18.63;;
32918;SDS011;19280;42.646;21.150;2022-08-21T06:36:12;33.78;;;16.52;;
32918;SDS011;19280;42.646;21.150;2022-08-21T06:38:40;32.72;;;15.15;;
32918;SDS011;19280;42.646;21.150;2022-08-21T06:41:07;26.75;;;16.35;;
32918;SDS011;19280;42.646;21.150;2022-08-21T06:43:34;26.40;;;16.50;;
32918;SDS011;19280;42.646;21.150;2022-08-21T06:46:01;34.17;;;16.27;;
32918;SDS011;19280;42.646;21.150;2022-08-21T06:48:28;30.90;;;15.93;;
32918;SDS011;19280;42.646;21.150;2022-08-21T06:50:58;33.90;;;15.15;;
32918;SDS011;19280;42.646;21.150;2022-08-21T06:53:25;22.83;;;13.77;;
32918;SDS011;19280;42.646;21.150;2022-08-21T06:55:51;19.40;;;12.40;;
32918;SDS011;19280;42.646;21.150;2022-08-21T06:58:18;24.38;;;12.27;;
32918;SDS011;19280;42.646;21.150;2022-08-21T07:00:46;23.08;;;11.75;;
32918;SDS011;19280;42.646;21.150;2022-08-21T07:03:19;22.83;;;11.50;;
32918;SDS011;19280;42.646;21.150;2022-08-21T07:05:46;22.95;;;11.70;;
32918;SDS011;19280;42.646;21.150;2022-08-21T07:08:13;28.50;;;12.55;;
32918;SDS011;19280;42.646;21.150;2022-08-21T07:10:39;21.30;;;11.77;;
32918;SDS011;19280;42.646;21.150;2022-08-21T07:13:06;21.45;;;12.25;;
32918;SDS011;19280;42.646;21.150;2022-08-21T07:15:34;22.83;;;12.52;;
32918;SDS011;19280;42.646;21.150;2022-08-21T07:18:01;23.00;;;10.25;;
32918;SDS011;19280;42.646;21.150;2022-08-21T07:20:29;18.65;;;11.15;;
32918;SDS011;19280;42.646;21.150;2022-08-21T07:22:58;19.08;;;10.20;;
32918;SDS011;19280;42.646;21.150;2022-08-21T07:25:25;18.38;;;10.18;;
32918;SDS011;19280;42.646;21.150;2022-08-21T07:27:52;19.63;;;10.95;;
32918;SDS011;19280;42.646;21.150;2022-08-21T07:30:21;21.10;;;10.13;;
32918;SDS011;19280;42.646;21.150;2022-08-21T07:32:48;19.45;;;10.18;;
32918;SDS011;19280;42.646;21.150;2022-08-21T07:35:15;15.25;;;9.30;;
32918;SDS011;19280;42.646;21.150;2022-08-21T07:37:42;18.33;;;10.48;;
32918;SDS011;19280;42.646;21.150;2022-08-21T07:40:09;21.15;;;10.57;;
32918;SDS011;19280;42.646;21.150;2022-08-21T07:42:41;22.77;;;11.98;;
32918;SDS011;19280;42.646;21.150;2022-08-21T07:45:08;25.75;;;12.18;;
32918;SDS011;19280;42.646;21.150;2022-08-21T07:47:36;21.80;;;9.98;;
32918;SDS011;19280;42.646;21.150;2022-08-21T07:50:04;14.48;;;8.88;;
32918;SDS011;19280;42.646;21.150;2022-08-21T07:52:32;19.02;;;9.40;;
32918;SDS011;19280;42.646;21.150;2022-08-21T07:54:59;18.85;;;9.35;;
32918;SDS011;19280;42.646;21.150;2022-08-21T07:57:26;23.13;;;10.70;;
32918;SDS011;19280;42.646;21.150;2022-08-21T07:59:52;20.65;;;11.57;;
32918;SDS011;19280;42.646;21.150;2022-08-21T08:02:28;20.70;;;10.63;;
32918;SDS011;19280;42.646;21.150;2022-08-21T08:05:03;29.08;;;11.45;;
32918;SDS011;19280;42.646;21.150;2022-08-21T08:07:31;19.92;;;10.48;;
32918;SDS011;19280;42.646;21.150;2022-08-21T08:09:58;22.95;;;11.32;;
32918;SDS011;19280;42.646;21.150;2022-08-21T08:12:25;20.45;;;10.45;;
32918;SDS011;19280;42.646;21.150;2022-08-21T08:14:58;17.95;;;10.40;;
32918;SDS011;19280;42.646;21.150;2022-08-21T08:17:26;20.27;;;10.43;;
32918;SDS011;19280;42.646;21.150;2022-08-21T08:19:53;18.35;;;10.55;;
32918;SDS011;19280;42.646;21.150;2022-08-21T08:22:21;21.83;;;10.95;;
32918;SDS011;19280;42.646;21.150;2022-08-21T08:24:50;18.42;;;10.30;;
32918;SDS011;19280;42.646;21.150;2022-08-21T08:27:17;20.30;;;10.18;;
32918;SDS011;19280;42.646;21.150;2022-08-21T08:29:45;22.10;;;10.75;;
32918;SDS011;19280;42.646;21.150;2022-08-21T08:32:12;17.15;;;9.35;;
32918;SDS011;19280;42.646;21.150;2022-08-21T08:34:40;18.98;;;9.25;;
32918;SDS011;19280;42.646;21.150;2022-08-21T08:37:08;17.13;;;9.50;;
32918;SDS011;19280;42.646;21.150;2022-08-21T08:39:36;11.60;;;8.60;;
32918;SDS011;19280;42.646;21.150;2022-08-21T08:44:35;14.40;;;8.05;;
32918;SDS011;19280;42.646;21.150;2022-08-21T08:47:03;17.90;;;8.50;;
32918;SDS011;19280;42.646;21.150;2022-08-21T08:54:33;16.00;;;9.70;;
32918;SDS011;19280;42.646;21.150;2022-08-21T08:57:02;18.23;;;10.05;;
32918;SDS011;19280;42.646;21.150;2022-08-21T08:59:40;25.85;;;10.15;;
32918;SDS011;19280;42.646;21.150;2022-08-21T09:02:09;25.83;;;10.18;;
32918;SDS011;19280;42.646;21.150;2022-08-21T09:04:37;15.65;;;8.45;;
32918;SDS011;19280;42.646;21.150;2022-08-21T09:07:08;14.25;;;7.68;;
32918;SDS011;19280;42.646;21.150;2022-08-21T09:15:05;5.45;;;2.40;;
32918;SDS011;19280;42.646;21.150;2022-08-21T09:23:02;5.22;;;3.35;;
32918;SDS011;19280;42.646;21.150;2022-08-21T09:27:57;2.30;;;1.60;;
32918;SDS011;19280;42.646;21.150;2022-08-21T09:30:28;1.60;;;1.30;;
32918;SDS011;19280;42.646;21.150;2022-08-21T09:32:55;5.57;;;1.60;;
32918;SDS011;19280;42.646;21.150;2022-08-21T09:35:22;2.55;;;1.35;;
32918;SDS011;19280;42.646;21.150;2022-08-21T09:37:54;3.88;;;1.90;;
32918;SDS011;19280;42.646;21.150;2022-08-21T09:40:33;2.25;;;1.40;;
32918;SDS011;19280;42.646;21.150;2022-08-21T09:45:31;1.40;;;1.23;;
32918;SDS011;19280;42.646;21.150;2022-08-21T09:48:13;1.90;;;1.33;;
32918;SDS011;19280;42.646;21.150;2022-08-21T09:50:40;1.65;;;1.40;;
32918;SDS011;19280;42.646;21.150;2022-08-21T09:53:22;2.67;;;1.25;;
32918;SDS011;19280;42.646;21.150;2022-08-21T09:55:53;3.25;;;1.88;;
32918;SDS011;19280;42.646;21.150;2022-08-21T09:58:41;3.33;;;1.65;;
32918;SDS011;19280;42.646;21.150;2022-08-21T10:01:17;2.42;;;1.30;;
32918;SDS011;19280;42.646;21.150;2022-08-21T10:03:45;2.60;;;1.42;;
32918;SDS011;19280;42.646;21.150;2022-08-21T10:06:23;2.25;;;1.40;;
32918;SDS011;19280;42.646;21.150;2022-08-21T10:08:50;2.35;;;1.40;;
32918;SDS011;19280;42.646;21.150;2022-08-21T10:11:19;4.43;;;1.88;;
32918;SDS011;19280;42.646;21.150;2022-08-21T10:21:33;2.13;;;1.77;;
32918;SDS011;19280;42.646;21.150;2022-08-21T10:24:05;3.47;;;2.03;;
32918;SDS011;19280;42.646;21.150;2022-08-21T10:26:39;4.97;;;2.13;;
32918;SDS011;19280;42.646;21.150;2022-08-21T10:29:16;2.83;;;2.20;;
32918;SDS011;19280;42.646;21.150;2022-08-21T10:34:45;7.43;;;2.60;;
32918;SDS011;19280;42.646;21.150;2022-08-21T10:39:51;4.88;;;2.60;;
32918;SDS011;19280;42.646;21.150;2022-08-21T10:42:26;3.83;;;2.30;;
32918;SDS011;19280;42.646;21.150;2022-08-21T10:45:02;3.63;;;2.53;;
32918;SDS011;19280;42.646;21.150;2022-08-21T10:47:35;4.47;;;2.50;;
32918;SDS011;19280;42.646;21.150;2022-08-21T10:55:23;4.90;;;2.63;;
32918;SDS011;19280;42.646;21.150;2022-08-21T10:57:54;6.90;;;3.60;;
32918;SDS011;19280;42.646;21.150;2022-08-21T11:10:27;5.50;;;2.65;;
32918;SDS011;19280;42.646;21.150;2022-08-21T11:13:07;3.55;;;2.78;;
32918;SDS011;19280;42.646;21.150;2022-08-21T11:15:47;6.57;;;3.00;;
32918;SDS011;19280;42.646;21.150;2022-08-21T11:18:23;6.80;;;3.20;;
32918;SDS011;19280;42.646;21.150;2022-08-21T11:20:54;5.50;;;3.13;;
32918;SDS011;19280;42.646;21.150;2022-08-21T11:26:46;6.25;;;2.58;;
32918;SDS011;19280;42.646;21.150;2022-08-21T11:29:16;5.07;;;3.10;;
32918;SDS011;19280;42.646;21.150;2022-08-21T11:34:43;5.15;;;3.10;;
32918;SDS011;19280;42.646;21.150;2022-08-21T11:37:17;7.53;;;4.20;;
32918;SDS011;19280;42.646;21.150;2022-08-21T11:40:00;3.70;;;2.60;;
32918;SDS011;19280;42.646;21.150;2022-08-21T11:44:59;6.07;;;2.95;;
32918;SDS011;19280;42.646;21.150;2022-08-21T11:52:48;5.20;;;3.53;;
32918;SDS011;19280;42.646;21.150;2022-08-21T11:55:19;8.75;;;4.13;;
32918;SDS011;19280;42.646;21.150;2022-08-21T11:57:51;6.18;;;4.13;;
32918;SDS011;19280;42.646;21.150;2022-08-21T12:02:53;6.97;;;3.45;;
32918;SDS011;19280;42.646;21.150;2022-08-21T12:05:31;9.48;;;3.97;;
32918;SDS011;19280;42.646;21.150;2022-08-21T12:08:02;5.75;;;3.47;;
32918;SDS011;19280;42.646;21.150;2022-08-21T12:10:31;7.05;;;4.15;;
32918;SDS011;19280;42.646;21.150;2022-08-21T12:13:07;5.78;;;3.67;;
32918;SDS011;19280;42.646;21.150;2022-08-21T12:15:37;6.00;;;3.85;;
32918;SDS011;19280;42.646;21.150;2022-08-21T12:18:05;6.15;;;3.80;;
32918;SDS011;19280;42.646;21.150;2022-08-21T12:23:03;5.90;;;4.10;;
32918;SDS011;19280;42.646;21.150;2022-08-21T12:25:43;5.47;;;3.88;;
32918;SDS011;19280;42.646;21.150;2022-08-21T12:28:15;6.50;;;4.22;;
32918;SDS011;19280;42.646;21.150;2022-08-21T12:30:44;7.60;;;4.40;;
32918;SDS011;19280;42.646;21.150;2022-08-21T12:33:32;5.93;;;4.18;;
32918;SDS011;19280;42.646;21.150;2022-08-21T12:36:05;5.55;;;3.92;;
32918;SDS011;19280;42.646;21.150;2022-08-21T12:38:47;7.82;;;4.13;;
32918;SDS011;19280;42.646;21.150;2022-08-21T12:41:30;5.88;;;4.07;;
32918;SDS011;19280;42.646;21.150;2022-08-21T12:44:10;7.03;;;4.07;;
32918;SDS011;19280;42.646;21.150;2022-08-21T12:46:43;5.88;;;3.78;;
32918;SDS011;19280;42.646;21.150;2022-08-21T12:49:13;8.00;;;4.63;;
32918;SDS011;19280;42.646;21.150;2022-08-21T12:51:46;8.68;;;4.25;;
32918;SDS011;19280;42.646;21.150;2022-08-21T12:54:26;8.48;;;4.65;;
32918;SDS011;19280;42.646;21.150;2022-08-21T12:57:03;8.73;;;4.15;;
32918;SDS011;19280;42.646;21.150;2022-08-21T12:59:31;8.27;;;5.30;;
32918;SDS011;19280;42.646;21.150;2022-08-21T13:02:00;8.07;;;3.72;;
32918;SDS011;19280;42.646;21.150;2022-08-21T13:04:36;6.03;;;3.75;;
32918;SDS011;19280;42.646;21.150;2022-08-21T13:07:08;5.40;;;4.05;;
32918;SDS011;19280;42.646;21.150;2022-08-21T13:09:48;3.80;;;3.28;;
32918;SDS011;19280;42.646;21.150;2022-08-21T13:12:16;7.55;;;4.78;;
32918;SDS011;19280;42.646;21.150;2022-08-21T13:14:44;6.50;;;4.07;;
32918;SDS011;19280;42.646;21.150;2022-08-21T13:17:19;7.72;;;4.72;;
32918;SDS011;19280;42.646;21.150;2022-08-21T13:20:00;6.43;;;4.05;;
32918;SDS011;19280;42.646;21.150;2022-08-21T13:22:28;6.87;;;3.90;;
32918;SDS011;19280;42.646;21.150;2022-08-21T13:24:55;5.47;;;4.18;;
32918;SDS011;19280;42.646;21.150;2022-08-21T13:27:26;5.38;;;3.83;;
32918;SDS011;19280;42.646;21.150;2022-08-21T13:30:17;6.65;;;4.18;;
32918;SDS011;19280;42.646;21.150;2022-08-21T13:32:47;6.40;;;4.25;;
32918;SDS011;19280;42.646;21.150;2022-08-21T13:35:24;7.97;;;4.45;;
32918;SDS011;19280;42.646;21.150;2022-08-21T13:37:52;10.55;;;4.72;;
32918;SDS011;19280;42.646;21.150;2022-08-21T13:40:29;6.57;;;4.70;;
32918;SDS011;19280;42.646;21.150;2022-08-21T13:42:56;8.32;;;4.60;;
32918;SDS011;19280;42.646;21.150;2022-08-21T13:45:25;9.27;;;5.30;;
32918;SDS011;19280;42.646;21.150;2022-08-21T13:47:52;10.27;;;4.93;;
32918;SDS011;19280;42.646;21.150;2022-08-21T13:50:20;10.43;;;5.75;;
32918;SDS011;19280;42.646;21.150;2022-08-21T13:52:59;8.80;;;5.35;;
32918;SDS011;19280;42.646;21.150;2022-08-21T13:55:34;8.02;;;5.28;;
32918;SDS011;19280;42.646;21.150;2022-08-21T13:58:02;11.50;;;5.00;;
32918;SDS011;19280;42.646;21.150;2022-08-21T14:00:31;9.90;;;5.93;;
32918;SDS011;19280;42.646;21.150;2022-08-21T14:03:09;8.40;;;5.28;;
32918;SDS011;19280;42.646;21.150;2022-08-21T14:05:38;7.20;;;4.78;;
32918;SDS011;19280;42.646;21.150;2022-08-21T14:08:27;13.02;;;4.90;;
32918;SDS011;19280;42.646;21.150;2022-08-21T14:10:55;10.95;;;5.18;;
32918;SDS011;19280;42.646;21.150;2022-08-21T14:15:54;9.80;;;5.50;;
32918;SDS011;19280;42.646;21.150;2022-08-21T14:18:21;6.70;;;4.90;;
32918;SDS011;19280;42.646;21.150;2022-08-21T14:20:51;9.35;;;5.72;;
32918;SDS011;19280;42.646;21.150;2022-08-21T14:23:25;8.15;;;5.25;;
32918;SDS011;19280;42.646;21.150;2022-08-21T14:25:52;10.13;;;6.20;;
32918;SDS011;19280;42.646;21.150;2022-08-21T14:28:28;13.98;;;6.65;;
32918;SDS011;19280;42.646;21.150;2022-08-21T14:30:57;11.73;;;6.90;;
32918;SDS011;19280;42.646;21.150;2022-08-21T14:33:28;12.30;;;6.32;;
32918;SDS011;19280;42.646;21.150;2022-08-21T14:35:56;13.18;;;6.63;;
32918;SDS011;19280;42.646;21.150;2022-08-21T14:38:24;15.13;;;7.43;;
32918;SDS011;19280;42.646;21.150;2022-08-21T14:41:00;16.75;;;7.95;;
32918;SDS011;19280;42.646;21.150;2022-08-21T14:43:31;12.68;;;7.95;;
32918;SDS011;19280;42.646;21.150;2022-08-21T14:45:58;11.48;;;6.43;;
32918;SDS011;19280;42.646;21.150;2022-08-21T14:48:27;9.23;;;6.30;;
32918;SDS011;19280;42.646;21.150;2022-08-21T14:50:53;8.73;;;4.68;;
32918;SDS011;19280;42.646;21.150;2022-08-21T14:53:20;8.23;;;4.53;;
32918;SDS011;19280;42.646;21.150;2022-08-21T14:55:47;9.70;;;4.35;;
32918;SDS011;19280;42.646;21.150;2022-08-21T14:58:33;6.30;;;4.50;;
32918;SDS011;19280;42.646;21.150;2022-08-21T15:01:00;8.25;;;4.85;;
32918;SDS011;19280;42.646;21.150;2022-08-21T15:03:30;19.50;;;6.90;;
32918;SDS011;19280;42.646;21.150;2022-08-21T15:05:57;19.00;;;7.20;;
32918;SDS011;19280;42.646;21.150;2022-08-21T15:08:24;11.18;;;5.70;;
32918;SDS011;19280;42.646;21.150;2022-08-21T15:10:51;11.43;;;6.00;;
32918;SDS011;19280;42.646;21.150;2022-08-21T15:13:19;12.80;;;6.20;;
32918;SDS011;19280;42.646;21.150;2022-08-21T15:15:47;9.45;;;5.63;;
32918;SDS011;19280;42.646;21.150;2022-08-21T15:18:15;8.88;;;5.38;;
32918;SDS011;19280;42.646;21.150;2022-08-21T15:20:43;13.18;;;5.18;;
32918;SDS011;19280;42.646;21.150;2022-08-21T15:23:11;10.95;;;5.00;;
32918;SDS011;19280;42.646;21.150;2022-08-21T15:25:43;8.93;;;4.93;;
32918;SDS011;19280;42.646;21.150;2022-08-21T15:28:10;8.10;;;4.78;;
32918;SDS011;19280;42.646;21.150;2022-08-21T15:30:38;11.05;;;4.80;;
32918;SDS011;19280;42.646;21.150;2022-08-21T15:33:05;10.10;;;5.25;;
32918;SDS011;19280;42.646;21.150;2022-08-21T15:35:32;12.75;;;7.38;;
32918;SDS011;19280;42.646;21.150;2022-08-21T15:37:59;9.05;;;4.82;;
32918;SDS011;19280;42.646;21.150;2022-08-21T15:40:26;11.63;;;4.80;;
32918;SDS011;19280;42.646;21.150;2022-08-21T15:42:55;9.07;;;4.55;;